createdAt,value
2022-08-22T00:00:18.871Z,41.00
2022-08-22T00:01:39.083Z,41.10
2022-08-22T00:02:46.510Z,39.40
2022-08-22T00:02:54.938Z,40.00
2022-08-22T00:03:11.474Z,40.80
2022-08-22T00:03:11.562Z,40.60
2022-08-22T00:03:18.577Z,41.00
2022-08-22T00:04:35.170Z,41.00
2022-08-22T00:05:44.462Z,41.00
2022-08-22T00:06:54.859Z,41.10
2022-08-22T00:08:03.838Z,40.90
2022-08-22T00:09:11.839Z,41.00
2022-08-22T00:10:32.874Z,40.90
2022-08-22T00:11:47.120Z,41.00
2022-08-22T00:12:58.396Z,40.90
2022-08-22T00:14:19.265Z,40.90
2022-08-22T00:15:43.601Z,40.90
2022-08-22T00:16:58.646Z,41.00
2022-08-22T00:18:05.525Z,41.00
2022-08-22T00:19:08.031Z,41.10
2022-08-22T00:20:16.332Z,41.10
2022-08-22T00:21:24.450Z,41.20
2022-08-22T00:22:32.556Z,41.20
2022-08-22T00:23:52.554Z,41.20
2022-08-22T00:25:24.873Z,41.20
2022-08-22T00:26:31.882Z,41.20
2022-08-22T00:27:53.321Z,41.20
2022-08-22T00:29:00.136Z,41.30
2022-08-22T00:30:13.260Z,41.20
2022-08-22T00:31:16.040Z,41.20
2022-08-22T00:32:20.563Z,41.30
2022-08-22T00:33:45.734Z,41.30
2022-08-22T00:34:54.349Z,41.30
2022-08-22T00:36:09.210Z,41.30
2022-08-22T00:37:24.430Z,41.10
2022-08-22T00:38:28.905Z,41.30
2022-08-22T00:39:46.158Z,41.40
2022-08-22T00:41:03.741Z,41.40
2022-08-22T00:42:15.017Z,41.50
2022-08-22T00:43:37.337Z,41.40
2022-08-22T00:44:57.689Z,41.40
2022-08-22T00:45:59.834Z,41.40
2022-08-22T00:47:04.816Z,41.50
2022-08-22T00:48:25.604Z,41.50
2022-08-22T00:49:32.999Z,41.60
2022-08-22T00:50:53.591Z,41.60
2022-08-22T00:52:14.316Z,41.60
2022-08-22T00:53:16.524Z,41.50
2022-08-22T00:54:33.818Z,41.70
2022-08-22T00:55:53.470Z,41.60
2022-08-22T00:57:04.599Z,41.50
2022-08-22T00:58:15.866Z,41.60
2022-08-22T00:59:36.145Z,41.40
2022-08-22T01:00:58.798Z,41.30
2022-08-22T01:02:27.287Z,41.40
2022-08-22T01:03:32.335Z,41.40
2022-08-22T01:04:42.237Z,41.40
2022-08-22T01:05:56.509Z,41.40
2022-08-22T01:06:58.783Z,41.40
2022-08-22T01:08:24.812Z,41.40
2022-08-22T01:09:36.084Z,41.30
2022-08-22T01:10:38.508Z,41.40
2022-08-22T01:11:40.653Z,41.40
2022-08-22T01:12:51.640Z,41.40
2022-08-22T01:14:12.823Z,41.50
2022-08-22T01:15:22.663Z,41.40
2022-08-22T01:16:50.376Z,41.50
2022-08-22T01:18:13.981Z,41.60
2022-08-22T01:19:34.388Z,41.60
2022-08-22T01:20:42.442Z,41.70
2022-08-22T01:21:51.578Z,41.90
2022-08-22T01:22:53.731Z,42.00
2022-08-22T01:24:14.035Z,42.10
2022-08-22T01:25:35.318Z,42.10
2022-08-22T01:26:56.446Z,42.10
2022-08-22T01:28:02.761Z,42.00
2022-08-22T01:29:14.510Z,42.00
2022-08-22T01:30:35.475Z,42.00
2022-08-22T01:31:42.451Z,42.00
2022-08-22T01:32:48.056Z,42.00
2022-08-22T01:34:13.091Z,42.00
2022-08-22T01:35:34.210Z,41.90
2022-08-22T01:36:51.455Z,41.70
2022-08-22T01:38:05.767Z,41.60
2022-08-22T01:39:13.861Z,41.70
2022-08-22T01:40:28.973Z,41.40
2022-08-22T01:41:31.134Z,41.40
2022-08-22T01:42:52.202Z,41.40
2022-08-22T01:43:59.757Z,41.40
2022-08-22T01:45:30.653Z,41.40
2022-08-22T01:46:51.252Z,41.30
2022-08-22T01:47:55.434Z,41.40
2022-08-22T01:49:10.755Z,41.50
2022-08-22T01:50:18.725Z,41.70
2022-08-22T01:51:39.575Z,42.00
2022-08-22T01:52:41.868Z,41.70
2022-08-22T01:53:50.305Z,41.60
2022-08-22T01:54:52.503Z,41.50
2022-08-22T01:56:02.365Z,41.50
2022-08-22T01:57:07.765Z,41.40
2022-08-22T01:58:15.786Z,41.40
2022-08-22T01:59:28.928Z,41.40
2022-08-22T02:00:51.328Z,41.30
2022-08-22T02:01:58.907Z,41.20
2022-08-22T02:03:07.342Z,41.20
2022-08-22T02:04:13.092Z,41.20
2022-08-22T02:05:37.056Z,41.20
2022-08-22T02:06:42.129Z,41.10
2022-08-22T02:08:01.017Z,41.10
2022-08-22T02:09:14.504Z,41.20
2022-08-22T02:10:23.517Z,41.20
2022-08-22T02:11:44.632Z,41.30
2022-08-22T02:13:05.396Z,41.50
2022-08-22T02:14:13.315Z,41.50
2022-08-22T02:15:18.390Z,41.70
2022-08-22T02:16:33.137Z,41.80
2022-08-22T02:17:50.794Z,41.80
2022-08-22T02:18:59.378Z,41.80
2022-08-22T02:20:18.217Z,41.80
2022-08-22T02:21:26.614Z,41.90
2022-08-22T02:22:53.394Z,41.90
2022-08-22T02:23:58.627Z,42.00
2022-08-22T02:25:08.865Z,42.70
2022-08-22T02:26:16.789Z,42.10
2022-08-22T02:27:31.359Z,42.10
2022-08-22T02:28:56.717Z,42.10
2022-08-22T02:30:06.329Z,42.10
2022-08-22T02:31:16.623Z,42.10
2022-08-22T02:32:33.167Z,42.10
2022-08-22T02:33:38.164Z,42.20
2022-08-22T02:34:46.136Z,42.30
2022-08-22T02:35:51.798Z,42.30
2022-08-22T02:36:58.194Z,42.40
2022-08-22T02:38:07.138Z,42.30
2022-08-22T02:39:27.810Z,42.20
2022-08-22T02:40:34.027Z,42.30
2022-08-22T02:41:48.452Z,42.30
2022-08-22T02:42:59.773Z,42.50
2022-08-22T02:44:12.709Z,42.40
2022-08-22T02:45:34.374Z,42.40
2022-08-22T02:46:42.389Z,42.40
2022-08-22T02:47:59.574Z,42.50
2022-08-22T02:49:02.439Z,42.40
2022-08-22T02:50:12.681Z,42.40
2022-08-22T02:51:29.695Z,42.40
2022-08-22T02:52:54.593Z,42.40
2022-08-22T02:54:16.038Z,42.40
2022-08-22T02:55:29.656Z,42.40
2022-08-22T02:56:45.325Z,42.50
2022-08-22T02:58:05.982Z,42.60
2022-08-22T02:59:34.378Z,42.60
2022-08-22T03:00:45.788Z,42.60
2022-08-22T03:01:48.537Z,42.70
2022-08-22T03:02:57.149Z,42.70
2022-08-22T03:04:18.215Z,42.70
2022-08-22T03:05:26.216Z,42.80
2022-08-22T03:06:32.478Z,42.80
2022-08-22T03:07:39.254Z,42.80
2022-08-22T03:09:00.049Z,42.90
2022-08-22T03:10:07.917Z,42.80
2022-08-22T03:11:15.895Z,42.80
2022-08-22T03:12:21.227Z,42.90
2022-08-22T03:13:43.670Z,42.90
2022-08-22T03:15:06.741Z,42.90
2022-08-22T03:16:18.285Z,43.00
2022-08-22T03:17:39.078Z,43.00
2022-08-22T03:19:02.033Z,43.10
2022-08-22T03:20:12.509Z,43.10
2022-08-22T03:21:16.877Z,43.20
2022-08-22T03:22:29.864Z,43.10
2022-08-22T03:23:34.811Z,43.20
2022-08-22T03:24:47.002Z,43.10
2022-08-22T03:26:07.991Z,43.10
2022-08-22T03:27:32.076Z,43.20
2022-08-22T03:28:59.125Z,43.20
2022-08-22T03:30:05.523Z,43.20
2022-08-22T03:31:19.941Z,43.30
2022-08-22T03:32:23.878Z,43.40
2022-08-22T03:33:27.509Z,43.30
2022-08-22T03:34:29.852Z,43.30
2022-08-22T03:35:47.012Z,43.30
2022-08-22T03:37:07.583Z,43.30
2022-08-22T03:38:23.122Z,43.40
2022-08-22T03:39:38.373Z,43.40
2022-08-22T03:40:49.682Z,43.40
2022-08-22T03:41:52.175Z,43.40
2022-08-22T03:43:12.286Z,43.50
2022-08-22T03:44:37.230Z,43.50
2022-08-22T03:46:02.409Z,43.90
2022-08-22T03:47:13.373Z,43.60
2022-08-22T03:48:34.172Z,43.50
2022-08-22T03:49:45.265Z,43.50
2022-08-22T03:50:47.641Z,43.60
2022-08-22T03:52:08.386Z,43.60
2022-08-22T03:53:25.849Z,43.60
2022-08-22T03:54:56.516Z,43.50
2022-08-22T03:56:17.257Z,43.50
2022-08-22T03:57:44.227Z,43.60
2022-08-22T03:58:58.460Z,43.60
2022-08-22T04:00:03.413Z,43.60
2022-08-22T04:01:20.018Z,43.60
2022-08-22T04:02:44.256Z,43.60
2022-08-22T04:03:50.294Z,43.60
2022-08-22T04:05:18.264Z,43.60
2022-08-22T04:06:31.707Z,43.60
2022-08-22T04:07:52.927Z,43.60
2022-08-22T04:09:14.102Z,43.60
2022-08-22T04:10:37.199Z,43.60
2022-08-22T04:11:42.241Z,43.60
2022-08-22T04:13:05.683Z,43.60
2022-08-22T04:14:24.269Z,43.60
2022-08-22T04:15:39.660Z,43.60
2022-08-22T04:17:02.786Z,43.60
2022-08-22T04:18:23.475Z,43.60
2022-08-22T04:19:28.573Z,43.70
2022-08-22T04:20:44.714Z,43.70
2022-08-22T04:22:02.322Z,43.70
2022-08-22T04:23:23.221Z,43.70
2022-08-22T04:24:33.951Z,43.70
2022-08-22T04:25:38.869Z,43.80
2022-08-22T04:26:41.692Z,43.80
2022-08-22T04:27:58.352Z,43.80
2022-08-22T04:29:07.558Z,43.80
2022-08-22T04:30:27.297Z,43.80
2022-08-22T04:31:32.738Z,43.80
2022-08-22T04:32:43.479Z,43.80
2022-08-22T04:33:45.853Z,43.90
2022-08-22T04:34:59.099Z,43.60
2022-08-22T04:36:36.641Z,43.60
2022-08-22T04:38:14.302Z,43.50
2022-08-22T04:39:33.935Z,43.50
2022-08-22T04:40:39.254Z,43.60
2022-08-22T04:41:54.494Z,43.70
2022-08-22T04:43:00.748Z,43.70
2022-08-22T04:44:10.394Z,43.80
2022-08-22T04:45:36.478Z,43.80
2022-08-22T04:46:41.589Z,43.80
2022-08-22T04:47:53.938Z,43.80
2022-08-22T04:49:11.148Z,43.80
2022-08-22T04:50:22.594Z,43.90
2022-08-22T04:51:33.569Z,44.00
2022-08-22T04:52:54.388Z,44.10
2022-08-22T04:54:06.768Z,44.10
2022-08-22T04:55:21.313Z,44.20
2022-08-22T04:56:42.085Z,44.10
2022-08-22T04:58:02.772Z,44.10
2022-08-22T04:59:14.061Z,44.10
2022-08-22T05:00:16.675Z,44.10
2022-08-22T05:01:25.547Z,44.70
2022-08-22T05:02:27.858Z,44.30
2022-08-22T05:03:32.335Z,44.10
2022-08-22T05:04:49.691Z,44.10
2022-08-22T05:05:53.812Z,44.10
2022-08-22T05:07:19.198Z,44.10
2022-08-22T05:08:25.073Z,44.10
2022-08-22T05:09:30.532Z,44.10
2022-08-22T05:10:37.656Z,44.10
2022-08-22T05:11:41.289Z,44.00
2022-08-22T05:12:45.267Z,44.00
2022-08-22T05:13:50.791Z,44.10
2022-08-22T05:14:58.308Z,44.00
2022-08-22T05:16:05.945Z,44.00
2022-08-22T05:17:10.633Z,44.10
2022-08-22T05:18:18.471Z,44.10
2022-08-22T05:19:31.675Z,44.00
2022-08-22T05:20:34.636Z,44.00
2022-08-22T05:21:39.012Z,44.00
2022-08-22T05:22:44.762Z,44.00
2022-08-22T05:23:52.218Z,44.00
2022-08-22T05:24:57.261Z,44.00
2022-08-22T05:26:01.083Z,44.00
2022-08-22T05:27:15.636Z,43.90
2022-08-22T05:28:25.407Z,44.00
2022-08-22T05:29:29.743Z,43.90
2022-08-22T05:30:33.717Z,43.80
2022-08-22T05:31:40.340Z,43.90
2022-08-22T05:32:51.582Z,43.90
2022-08-22T05:34:01.740Z,43.90
2022-08-22T05:35:05.421Z,44.00
2022-08-22T05:36:10.614Z,44.00
2022-08-22T05:37:15.599Z,43.90
2022-08-22T05:38:21.077Z,43.90
2022-08-22T05:39:25.306Z,43.80
2022-08-22T05:40:29.181Z,43.80
2022-08-22T05:41:33.513Z,43.90
2022-08-22T05:42:38.958Z,43.90
2022-08-22T05:43:43.585Z,43.80
2022-08-22T05:44:46.376Z,43.90
2022-08-22T05:45:49.212Z,43.80
2022-08-22T05:46:58.481Z,43.80
2022-08-22T05:48:04.906Z,43.90
2022-08-22T05:49:14.992Z,43.80
2022-08-22T05:50:23.869Z,43.80
2022-08-22T05:51:45.975Z,43.80
2022-08-22T05:53:06.386Z,43.90
2022-08-22T05:54:19.951Z,43.80
2022-08-22T05:55:25.062Z,44.00
2022-08-22T05:56:47.397Z,44.10
2022-08-22T05:58:13.549Z,44.00
2022-08-22T05:59:27.217Z,44.10
2022-08-22T06:00:32.843Z,44.00
2022-08-22T06:01:43.566Z,44.10
2022-08-22T06:02:45.849Z,44.00
2022-08-22T06:03:58.873Z,44.00
2022-08-22T06:05:05.058Z,44.20
2022-08-22T06:06:17.539Z,44.10
2022-08-22T06:07:19.829Z,44.20
2022-08-22T06:08:25.910Z,44.20
2022-08-22T06:09:46.203Z,44.30
2022-08-22T06:10:51.249Z,44.40
2022-08-22T06:11:59.619Z,44.30
2022-08-22T06:13:13.597Z,44.30
2022-08-22T06:14:18.611Z,44.40
2022-08-22T06:15:36.188Z,44.50
2022-08-22T06:16:54.018Z,44.40
2022-08-22T06:18:05.649Z,44.40
2022-08-22T06:19:19.228Z,44.60
2022-08-22T06:20:33.558Z,44.50
2022-08-22T06:21:39.753Z,44.70
2022-08-22T06:22:51.728Z,44.70
2022-08-22T06:23:56.758Z,44.50
2022-08-22T06:25:08.512Z,44.50
2022-08-22T06:26:20.166Z,44.40
2022-08-22T06:27:25.995Z,44.30
2022-08-22T06:28:37.231Z,44.30
2022-08-22T06:29:53.292Z,44.10
2022-08-22T06:30:57.347Z,43.80
2022-08-22T06:32:02.428Z,43.70
2022-08-22T06:33:12.611Z,43.40
2022-08-22T06:34:17.584Z,43.40
2022-08-22T06:35:57.379Z,43.30
2022-08-22T06:37:02.580Z,43.10
2022-08-22T06:38:05.218Z,43.10
2022-08-22T06:39:07.573Z,43.00
2022-08-22T06:40:12.468Z,42.90
2022-08-22T06:41:14.902Z,42.90
2022-08-22T06:42:22.991Z,42.80
2022-08-22T06:43:25.542Z,42.90
2022-08-22T06:44:30.354Z,42.90
2022-08-22T06:45:33.017Z,42.90
2022-08-22T06:46:37.089Z,42.90
2022-08-22T06:47:41.130Z,42.90
2022-08-22T06:48:46.810Z,42.90
2022-08-22T06:49:50.487Z,42.90
2022-08-22T06:50:56.223Z,42.90
2022-08-22T06:52:04.345Z,43.10
2022-08-22T06:53:13.751Z,43.00
2022-08-22T06:54:21.819Z,42.90
2022-08-22T06:55:26.233Z,42.80
2022-08-22T06:56:38.688Z,42.70
2022-08-22T06:57:48.880Z,42.60
2022-08-22T06:58:54.526Z,42.50
2022-08-22T06:59:58.138Z,42.60
2022-08-22T07:01:11.955Z,42.50
2022-08-22T07:02:27.192Z,42.50
2022-08-22T07:03:33.462Z,42.50
2022-08-22T07:04:36.839Z,42.40
2022-08-22T07:05:40.945Z,42.50
2022-08-22T07:06:50.535Z,42.30
2022-08-22T07:07:53.504Z,42.20
2022-08-22T07:08:56.475Z,42.30
2022-08-22T07:09:59.310Z,42.30
2022-08-22T07:11:16.023Z,42.30
2022-08-22T07:12:20.331Z,42.40
2022-08-22T07:13:24.443Z,42.30
2022-08-22T07:14:40.431Z,42.30
2022-08-22T07:15:43.493Z,42.30
2022-08-22T07:16:56.186Z,42.30
2022-08-22T07:18:00.601Z,42.40
2022-08-22T07:19:03.914Z,42.50
2022-08-22T07:20:21.916Z,42.60
2022-08-22T07:21:27.957Z,42.60
2022-08-22T07:22:33.159Z,42.70
2022-08-22T07:23:40.470Z,42.60
2022-08-22T07:24:46.997Z,42.60
2022-08-22T07:25:50.438Z,42.60
2022-08-22T07:27:01.891Z,42.60
2022-08-22T07:28:16.058Z,42.70
2022-08-22T07:29:25.093Z,42.70
2022-08-22T07:30:36.288Z,42.50
2022-08-22T07:31:44.404Z,42.50
2022-08-22T07:32:52.730Z,42.70
2022-08-22T07:33:58.520Z,42.70
2022-08-22T07:35:10.400Z,42.80
2022-08-22T07:36:32.231Z,42.90
2022-08-22T07:37:48.111Z,42.50
2022-08-22T07:39:03.588Z,42.50
2022-08-22T07:40:08.945Z,42.30
2022-08-22T07:41:22.003Z,42.70
2022-08-22T07:42:31.225Z,42.50
2022-08-22T07:43:45.846Z,42.30
2022-08-22T07:44:56.942Z,42.30
2022-08-22T07:46:02.704Z,42.90
2022-08-22T07:47:16.346Z,42.40
2022-08-22T07:48:25.775Z,42.40
2022-08-22T07:49:54.863Z,42.80
2022-08-22T07:51:00.968Z,42.30
2022-08-22T07:52:08.779Z,42.40
2022-08-22T07:53:20.116Z,42.40
2022-08-22T07:54:27.123Z,42.40
2022-08-22T07:55:29.914Z,42.40
2022-08-22T07:56:35.531Z,42.30
2022-08-22T07:57:40.652Z,42.30
2022-08-22T07:58:44.760Z,42.40
2022-08-22T07:59:49.280Z,42.40
2022-08-22T08:00:51.754Z,42.50
2022-08-22T08:01:57.068Z,42.50
2022-08-22T08:03:02.587Z,42.50
2022-08-22T08:04:08.329Z,42.60
2022-08-22T08:05:11.686Z,42.70
2022-08-22T08:06:14.197Z,42.70
2022-08-22T08:07:18.445Z,42.80
2022-08-22T08:08:20.870Z,42.70
2022-08-22T08:09:23.871Z,42.80
2022-08-22T08:10:28.560Z,42.80
2022-08-22T08:11:40.569Z,42.50
2022-08-22T08:13:02.077Z,42.60
2022-08-22T08:14:07.202Z,42.60
2022-08-22T08:15:15.084Z,42.70
2022-08-22T08:16:19.817Z,42.60
2022-08-22T08:17:23.952Z,42.70
2022-08-22T08:18:28.145Z,42.70
2022-08-22T08:19:33.534Z,42.60
2022-08-22T08:20:36.917Z,42.60
2022-08-22T08:21:43.247Z,42.70
2022-08-22T08:22:46.504Z,42.60
2022-08-22T08:23:49.786Z,42.60
2022-08-22T08:24:54.826Z,42.50
2022-08-22T08:26:00.068Z,42.60
2022-08-22T08:27:23.250Z,42.70
2022-08-22T08:28:34.800Z,42.60
2022-08-22T08:29:37.698Z,42.70
2022-08-22T08:30:52.775Z,42.60
2022-08-22T08:31:55.867Z,42.70
2022-08-22T08:33:24.271Z,42.70
2022-08-22T08:34:25.174Z,42.70
2022-08-22T08:35:29.155Z,42.90
2022-08-22T08:36:32.045Z,42.90
2022-08-22T08:37:38.729Z,42.90
2022-08-22T08:38:51.508Z,42.90
2022-08-22T08:39:57.288Z,43.00
2022-08-22T08:41:22.511Z,43.00
2022-08-22T08:43:10.864Z,43.00
2022-08-22T08:44:23.253Z,43.00
2022-08-22T08:45:52.481Z,43.00
2022-08-22T08:47:17.443Z,42.90
2022-08-22T08:48:35.726Z,42.80
2022-08-22T08:49:42.185Z,42.70
2022-08-22T08:51:06.010Z,42.80
2022-08-22T08:52:28.154Z,42.70
2022-08-22T08:53:31.384Z,42.70
2022-08-22T08:54:47.242Z,42.70
2022-08-22T08:56:28.060Z,42.70
2022-08-22T08:57:32.974Z,42.80
2022-08-22T08:58:41.130Z,42.80
2022-08-22T08:59:54.434Z,42.80
2022-08-22T09:01:16.869Z,42.80
2022-08-22T09:02:24.961Z,42.90
2022-08-22T09:03:36.054Z,42.90
2022-08-22T09:05:01.203Z,42.80
2022-08-22T09:06:09.460Z,42.80
2022-08-22T09:07:31.450Z,42.80
2022-08-22T09:08:42.909Z,42.70
2022-08-22T09:09:52.727Z,42.70
2022-08-22T09:11:09.548Z,42.70
2022-08-22T09:12:15.086Z,42.70
2022-08-22T09:13:41.641Z,42.80
2022-08-22T09:14:56.023Z,42.80
2022-08-22T09:16:05.274Z,42.80
2022-08-22T09:17:27.312Z,42.70
2022-08-22T09:18:49.023Z,42.70
2022-08-22T09:19:51.962Z,42.80
2022-08-22T09:21:07.225Z,42.80
2022-08-22T09:22:14.647Z,42.70
2022-08-22T09:23:35.296Z,42.70
2022-08-22T09:24:46.036Z,42.70
2022-08-22T09:26:07.011Z,42.70
2022-08-22T09:27:28.667Z,42.80
2022-08-22T09:28:37.440Z,42.80
2022-08-22T09:29:54.496Z,42.80
2022-08-22T09:31:17.014Z,42.80
2022-08-22T09:32:35.615Z,42.80
2022-08-22T09:33:46.325Z,42.90
2022-08-22T09:35:04.566Z,42.90
2022-08-22T09:36:17.694Z,43.00
2022-08-22T09:37:35.114Z,43.10
2022-08-22T09:38:37.426Z,43.20
2022-08-22T09:39:50.827Z,43.20
2022-08-22T09:40:56.239Z,43.20
2022-08-22T09:42:08.277Z,43.20
2022-08-22T09:43:13.919Z,43.30
2022-08-22T09:44:32.483Z,43.20
2022-08-22T09:45:50.293Z,43.20
2022-08-22T09:47:11.394Z,43.20
2022-08-22T09:48:29.517Z,43.20
2022-08-22T09:49:32.742Z,43.10
2022-08-22T09:50:52.569Z,43.10
2022-08-22T09:52:15.168Z,43.10
2022-08-22T09:53:29.910Z,43.10
2022-08-22T09:54:44.882Z,43.10
2022-08-22T09:55:59.216Z,43.10
2022-08-22T09:57:16.302Z,43.00
2022-08-22T09:58:27.812Z,42.90
2022-08-22T09:59:48.870Z,42.90
2022-08-22T10:00:59.534Z,42.80
2022-08-22T10:02:32.393Z,42.80
2022-08-22T10:03:54.485Z,42.70
2022-08-22T10:05:03.941Z,42.90
2022-08-22T10:06:11.444Z,42.80
2022-08-22T10:07:19.730Z,42.80
2022-08-22T10:08:35.718Z,42.80
2022-08-22T10:09:57.233Z,42.80
2022-08-22T10:11:11.749Z,42.80
2022-08-22T10:12:24.184Z,42.80
2022-08-22T10:13:27.290Z,42.80
2022-08-22T10:14:56.106Z,42.80
2022-08-22T10:16:14.685Z,42.80
2022-08-22T10:17:22.029Z,42.90
2022-08-22T10:18:33.881Z,42.90
2022-08-22T10:19:39.176Z,42.90
2022-08-22T10:20:54.938Z,42.80
2022-08-22T10:22:05.477Z,42.90
2022-08-22T10:23:17.164Z,42.90
2022-08-22T10:24:32.452Z,42.80
2022-08-22T10:25:42.142Z,42.80
2022-08-22T10:27:07.827Z,42.70
2022-08-22T10:28:10.452Z,42.70
2022-08-22T10:29:32.221Z,42.80
2022-08-22T10:30:38.083Z,42.80
2022-08-22T10:31:59.511Z,42.80
2022-08-22T10:33:05.301Z,42.80
2022-08-22T10:34:19.680Z,42.80
2022-08-22T10:35:33.673Z,42.80
2022-08-22T10:36:44.809Z,42.70
2022-08-22T10:37:58.995Z,42.80
2022-08-22T10:39:11.077Z,42.80
2022-08-22T10:40:14.203Z,42.80
2022-08-22T10:41:36.140Z,42.80
2022-08-22T10:42:57.514Z,42.70
2022-08-22T10:44:05.124Z,42.60
2022-08-22T10:45:10.343Z,42.60
2022-08-22T10:46:15.156Z,42.60
2022-08-22T10:47:22.313Z,42.60
2022-08-22T10:48:42.849Z,42.60
2022-08-22T10:50:08.766Z,42.70
2022-08-22T10:51:34.698Z,42.70
2022-08-22T10:52:48.044Z,42.80
2022-08-22T10:54:08.288Z,42.80
2022-08-22T10:55:17.223Z,42.80
2022-08-22T10:56:34.985Z,43.30
2022-08-22T10:57:57.209Z,42.80
2022-08-22T10:59:18.399Z,42.80
2022-08-22T11:00:46.541Z,42.90
2022-08-22T11:02:08.203Z,42.90
2022-08-22T11:03:20.003Z,42.80
2022-08-22T11:04:51.188Z,42.70
2022-08-22T11:05:57.166Z,42.60
2022-08-22T11:07:12.119Z,42.60
2022-08-22T11:08:20.300Z,42.60
2022-08-22T11:09:23.297Z,42.50
2022-08-22T11:10:40.305Z,42.50
2022-08-22T11:11:43.736Z,42.50
2022-08-22T11:12:59.439Z,42.60
2022-08-22T11:14:12.130Z,42.60
2022-08-22T11:15:28.242Z,42.60
2022-08-22T11:16:47.052Z,42.50
2022-08-22T11:17:53.964Z,42.50
2022-08-22T11:19:15.345Z,42.50
2022-08-22T11:20:22.519Z,42.50
2022-08-22T11:21:33.089Z,42.50
2022-08-22T11:22:55.556Z,42.50
2022-08-22T11:24:05.088Z,42.40
2022-08-22T11:25:11.274Z,42.40
2022-08-22T11:26:38.303Z,42.40
2022-08-22T11:28:03.239Z,42.30
2022-08-22T11:29:13.702Z,42.30
2022-08-22T11:30:20.001Z,42.30
2022-08-22T11:31:47.101Z,42.40
2022-08-22T11:33:00.118Z,42.40
2022-08-22T11:34:21.724Z,42.40
2022-08-22T11:35:31.971Z,42.30
2022-08-22T11:36:37.192Z,42.30
2022-08-22T11:37:43.218Z,42.20
2022-08-22T11:38:58.096Z,42.20
2022-08-22T11:40:12.710Z,42.20
2022-08-22T11:41:18.858Z,42.10
2022-08-22T11:42:25.563Z,42.20
2022-08-22T11:43:45.182Z,42.10
2022-08-22T11:44:53.835Z,42.10
2022-08-22T11:45:57.886Z,42.10
2022-08-22T11:47:01.807Z,42.10
2022-08-22T11:48:20.046Z,42.10
2022-08-22T11:49:27.922Z,42.10
2022-08-22T11:50:36.172Z,42.10
2022-08-22T11:51:53.177Z,42.00
2022-08-22T11:52:58.997Z,42.00
2022-08-22T11:54:09.329Z,42.00
2022-08-22T11:55:16.640Z,42.00
2022-08-22T11:56:26.395Z,42.00
2022-08-22T11:57:28.526Z,42.00
2022-08-22T11:58:39.936Z,41.90
2022-08-22T11:59:44.886Z,41.10
2022-08-22T12:00:52.215Z,41.70
2022-08-22T12:02:00.514Z,41.70
2022-08-22T12:03:23.496Z,41.60
2022-08-22T12:04:44.225Z,41.70
2022-08-22T12:06:05.134Z,41.70
2022-08-22T12:07:15.597Z,41.60
2022-08-22T12:08:25.960Z,41.30
2022-08-22T12:09:32.181Z,41.40
2022-08-22T12:10:42.792Z,41.50
2022-08-22T12:11:49.744Z,42.10
2022-08-22T12:12:52.139Z,41.50
2022-08-22T12:14:03.943Z,41.50
2022-08-22T12:15:12.801Z,41.50
2022-08-22T12:16:26.560Z,41.50
2022-08-22T12:17:55.236Z,41.40
2022-08-22T12:19:24.098Z,41.40
2022-08-22T12:20:45.518Z,41.50
2022-08-22T12:21:50.713Z,41.50
2022-08-22T12:23:19.236Z,41.70
2022-08-22T12:24:32.951Z,41.60
2022-08-22T12:25:51.398Z,41.60
2022-08-22T12:26:53.717Z,41.60
2022-08-22T12:28:04.974Z,41.60
2022-08-22T12:29:27.560Z,41.60
2022-08-22T12:30:54.615Z,41.60
2022-08-22T12:32:13.433Z,41.60
2022-08-22T12:33:22.061Z,42.00
2022-08-22T12:34:28.519Z,41.50
2022-08-22T12:35:40.054Z,41.50
2022-08-22T12:37:00.276Z,41.50
2022-08-22T12:38:27.972Z,41.60
2022-08-22T12:39:31.393Z,41.50
2022-08-22T12:40:43.816Z,41.50
2022-08-22T12:41:46.711Z,41.50
2022-08-22T12:43:08.963Z,41.50
2022-08-22T12:44:26.184Z,41.50
2022-08-22T12:45:31.170Z,41.50
2022-08-22T12:46:33.477Z,42.00
2022-08-22T12:47:46.641Z,41.50
2022-08-22T12:48:48.978Z,41.50
2022-08-22T12:49:52.504Z,41.50
2022-08-22T12:51:03.716Z,41.50
2022-08-22T12:52:25.596Z,41.50
2022-08-22T12:53:33.810Z,41.40
2022-08-22T12:54:44.920Z,41.60
2022-08-22T12:55:57.506Z,41.40
2022-08-22T12:57:23.489Z,41.40
2022-08-22T12:58:41.452Z,41.40
2022-08-22T12:59:48.962Z,41.50
2022-08-22T13:00:52.600Z,41.40
2022-08-22T13:01:56.877Z,41.40
2022-08-22T13:03:02.606Z,41.50
2022-08-22T13:04:12.433Z,41.40
2022-08-22T13:05:40.482Z,41.40
2022-08-22T13:06:48.820Z,40.70
2022-08-22T13:07:54.530Z,41.30
2022-08-22T13:08:56.857Z,41.20
2022-08-22T13:10:03.141Z,41.20
2022-08-22T13:11:12.460Z,41.30
2022-08-22T13:12:27.706Z,41.10
2022-08-22T13:13:31.586Z,41.20
2022-08-22T13:14:39.461Z,41.20
2022-08-22T13:15:55.218Z,41.20
2022-08-22T13:17:00.465Z,41.10
2022-08-22T13:18:29.629Z,41.10
2022-08-22T13:19:35.996Z,41.10
2022-08-22T13:20:39.847Z,41.10
2022-08-22T13:21:49.580Z,41.10
2022-08-22T13:22:54.395Z,41.00
2022-08-22T13:24:03.109Z,41.00
2022-08-22T13:25:08.958Z,41.10
2022-08-22T13:26:32.922Z,41.00
2022-08-22T13:27:51.130Z,41.00
2022-08-22T13:30:32.938Z,41.10
2022-08-22T13:31:36.622Z,41.00
2022-08-22T13:32:44.356Z,41.10
2022-08-22T13:33:48.052Z,41.00
2022-08-22T13:34:53.910Z,41.10
2022-08-22T13:36:00.368Z,41.10
2022-08-22T13:37:03.844Z,41.00
2022-08-22T13:38:12.337Z,41.00
2022-08-22T13:39:14.732Z,41.00
2022-08-22T13:40:24.981Z,41.00
2022-08-22T13:41:30.295Z,41.00
2022-08-22T13:42:40.099Z,41.00
2022-08-22T13:44:11.795Z,40.10
2022-08-22T13:45:16.881Z,40.90
2022-08-22T13:46:22.584Z,41.00
2022-08-22T13:47:31.849Z,40.90
2022-08-22T13:48:49.690Z,41.00
2022-08-22T13:50:02.725Z,40.80
2022-08-22T13:51:05.015Z,40.20
2022-08-22T13:52:29.595Z,40.70
2022-08-22T13:53:32.518Z,40.80
2022-08-22T13:54:40.074Z,40.70
2022-08-22T13:55:49.198Z,40.80
2022-08-22T13:56:59.005Z,40.80
2022-08-22T13:58:14.746Z,40.80
2022-08-22T13:59:49.086Z,40.50
2022-08-22T14:01:02.104Z,40.80
2022-08-22T14:02:18.002Z,40.70
2022-08-22T14:03:26.282Z,40.80
2022-08-22T14:04:34.779Z,40.20
2022-08-22T14:05:46.430Z,40.70
2022-08-22T14:06:53.815Z,40.80
2022-08-22T14:07:59.623Z,40.80
2022-08-22T14:09:29.550Z,40.70
2022-08-22T14:10:38.273Z,40.70
2022-08-22T14:11:54.196Z,40.70
2022-08-22T14:12:56.412Z,40.60
2022-08-22T14:14:00.372Z,40.70
2022-08-22T14:15:06.147Z,40.70
2022-08-22T14:16:11.966Z,40.50
2022-08-22T14:17:18.976Z,40.70
2022-08-22T14:18:31.518Z,40.50
2022-08-22T14:19:58.668Z,40.60
2022-08-22T14:21:16.572Z,40.60
2022-08-22T14:22:32.277Z,40.60
2022-08-22T14:23:37.909Z,40.50
2022-08-22T14:24:45.633Z,40.00
2022-08-22T14:25:48.426Z,40.40
2022-08-22T14:26:52.981Z,40.50
2022-08-22T14:28:06.333Z,40.60
2022-08-22T14:29:13.368Z,40.60
2022-08-22T14:30:15.812Z,40.60
2022-08-22T14:31:21.994Z,40.50
2022-08-22T14:32:25.862Z,40.50
2022-08-22T14:33:39.802Z,40.50
2022-08-22T14:34:45.464Z,40.40
2022-08-22T14:35:52.655Z,40.60
2022-08-22T14:37:00.370Z,40.50
2022-08-22T14:38:29.797Z,40.50
2022-08-22T14:39:36.469Z,40.50
2022-08-22T14:40:39.889Z,40.50
2022-08-22T14:41:56.362Z,40.50
2022-08-22T14:43:04.229Z,40.50
2022-08-22T14:44:11.640Z,40.60
2022-08-22T14:45:18.822Z,40.50
2022-08-22T14:46:26.928Z,40.50
2022-08-22T14:48:04.933Z,40.60
2022-08-22T14:48:59.329Z,40.60
2022-08-22T14:50:09.498Z,40.10
2022-08-22T14:51:24.342Z,40.60
2022-08-22T14:52:32.688Z,40.60
2022-08-22T14:53:37.474Z,40.50
2022-08-22T14:54:42.602Z,40.50
2022-08-22T14:55:56.549Z,40.50
2022-08-22T14:57:00.597Z,40.50
2022-08-22T14:58:05.938Z,40.40
2022-08-22T14:59:12.071Z,40.40
2022-08-22T15:00:35.783Z,40.50
2022-08-22T15:01:58.089Z,40.40
2022-08-22T15:03:12.491Z,40.30
2022-08-22T15:04:20.928Z,40.10
2022-08-22T15:05:23.866Z,40.20
2022-08-22T15:06:31.102Z,40.10
2022-08-22T15:07:35.498Z,40.10
2022-08-22T15:08:46.470Z,40.10
2022-08-22T15:09:56.327Z,40.00
2022-08-22T15:11:18.243Z,40.10
2022-08-22T15:12:49.952Z,40.20
2022-08-22T15:14:04.647Z,40.10
2022-08-22T15:15:12.529Z,40.10
2022-08-22T15:16:17.533Z,40.10
2022-08-22T15:17:34.727Z,40.10
2022-08-22T15:18:39.045Z,40.00
2022-08-22T15:19:42.963Z,40.10
2022-08-22T15:20:52.071Z,40.10
2022-08-22T15:22:08.400Z,40.10
2022-08-22T15:23:19.407Z,40.00
2022-08-22T15:24:23.346Z,40.00